createdAt,value
2023-02-22T00:00:22.929Z,75.58
2023-02-22T00:02:51.832Z,75.30
2023-02-22T00:05:19.878Z,75.06
2023-02-22T00:07:50.246Z,76.55
2023-02-22T00:10:18.271Z,79.36
2023-02-22T00:12:45.685Z,80.01
2023-02-22T00:15:14.890Z,80.22
2023-02-22T00:17:42.537Z,80.80
2023-02-22T00:20:11.015Z,81.13
2023-02-22T00:22:38.128Z,80.73
2023-02-22T00:25:07.003Z,80.56
2023-02-22T00:27:33.846Z,79.05
2023-02-22T00:30:00.840Z,78.23
2023-02-22T00:32:27.987Z,78.23
2023-02-22T00:34:55.152Z,78.84
2023-02-22T00:37:25.006Z,80.83
2023-02-22T00:39:52.075Z,82.39
2023-02-22T00:42:20.467Z,83.88
2023-02-22T00:44:47.301Z,84.28
2023-02-22T00:47:14.275Z,84.10
2023-02-22T00:49:41.556Z,83.94
2023-02-22T00:52:09.901Z,82.98
2023-02-22T00:54:36.788Z,82.12
2023-02-22T00:57:04.084Z,81.15
2023-02-22T00:59:32.334Z,79.87
2023-02-22T01:01:59.301Z,78.86
2023-02-22T01:04:26.626Z,78.11
2023-02-22T01:06:53.593Z,76.88
2023-02-22T01:09:20.543Z,76.15
2023-02-22T01:11:47.873Z,75.49
2023-02-22T01:14:15.364Z,75.50
2023-02-22T01:16:43.745Z,75.82
2023-02-22T01:19:10.591Z,75.63
2023-02-22T01:21:39.297Z,77.60
2023-02-22T01:24:07.128Z,80.47
2023-02-22T01:26:34.362Z,81.37
2023-02-22T01:29:01.366Z,79.21
2023-02-22T01:31:30.165Z,78.19
2023-02-22T01:33:59.824Z,77.49
2023-02-22T01:36:26.691Z,76.91
2023-02-22T01:38:53.618Z,76.48
2023-02-22T01:41:20.881Z,76.93
2023-02-22T01:43:47.950Z,77.33
2023-02-22T01:46:24.888Z,77.71
2023-02-22T01:48:58.889Z,76.67
2023-02-22T01:51:36.436Z,76.05
2023-02-22T01:54:13.070Z,75.44
2023-02-22T01:56:48.474Z,74.72
2023-02-22T01:59:15.290Z,73.96
2023-02-22T02:01:43.046Z,74.02
2023-02-22T02:04:16.496Z,73.85
2023-02-22T02:06:47.035Z,74.85
2023-02-22T02:09:24.634Z,76.93
2023-02-22T02:11:51.776Z,77.49
2023-02-22T02:14:21.732Z,77.85
2023-02-22T02:16:52.063Z,77.77
2023-02-22T02:19:45.587Z,77.78
2023-02-22T02:22:39.995Z,77.04
2023-02-22T02:25:40.562Z,77.33
2023-02-22T02:28:54.572Z,77.66
2023-02-22T02:32:08.873Z,77.42
2023-02-22T02:34:55.081Z,77.06
2023-02-22T02:37:34.866Z,76.53
2023-02-22T02:40:20.846Z,75.66
2023-02-22T02:42:58.284Z,75.23
2023-02-22T02:45:35.830Z,74.93
2023-02-22T02:48:08.903Z,74.61
2023-02-22T02:50:46.856Z,74.52
2023-02-22T02:53:20.643Z,74.29
2023-02-22T02:55:47.808Z,74.43
2023-02-22T02:58:21.515Z,75.17
2023-02-22T03:00:54.450Z,74.59
2023-02-22T03:03:50.969Z,74.36
2023-02-22T03:06:52.349Z,73.74
2023-02-22T03:09:38.416Z,73.60
2023-02-22T03:12:24.491Z,73.51
2023-02-22T03:15:08.264Z,73.74
2023-02-22T03:17:50.929Z,73.57
2023-02-22T03:20:28.891Z,74.26
2023-02-22T03:23:04.377Z,74.67
2023-02-22T03:25:38.754Z,75.20
2023-02-22T03:28:12.676Z,75.37
2023-02-22T03:30:48.072Z,76.51
2023-02-22T03:33:23.949Z,77.24
2023-02-22T03:35:59.439Z,77.92
2023-02-22T03:38:33.298Z,77.83
2023-02-22T03:41:04.318Z,78.06
2023-02-22T03:43:38.685Z,78.80
2023-02-22T03:46:14.380Z,78.70
2023-02-22T03:48:51.841Z,78.77
2023-02-22T03:51:19.218Z,78.66
2023-02-22T03:53:52.068Z,78.61
2023-02-22T03:56:30.145Z,78.76
2023-02-22T03:58:57.139Z,78.29
2023-02-22T04:01:24.108Z,78.32
2023-02-22T04:03:52.366Z,77.95
2023-02-22T04:06:19.743Z,78.11
2023-02-22T04:08:58.560Z,77.27
2023-02-22T04:11:25.776Z,76.40
2023-02-22T04:13:52.720Z,76.10
2023-02-22T04:16:19.976Z,75.43
2023-02-22T04:18:47.403Z,75.49
2023-02-22T04:21:18.674Z,75.67
2023-02-22T04:23:47.586Z,75.66
2023-02-22T04:26:16.737Z,75.35
2023-02-22T04:28:48.192Z,75.51
2023-02-22T04:31:19.546Z,75.65
2023-02-22T04:33:47.323Z,76.22
2023-02-22T04:36:18.179Z,76.13
2023-02-22T04:38:45.785Z,75.82
2023-02-22T04:41:13.156Z,75.56
2023-02-22T04:43:41.481Z,75.45
2023-02-22T04:46:16.346Z,75.27
2023-02-22T04:48:44.745Z,75.04
2023-02-22T04:51:13.751Z,75.12
2023-02-22T04:53:50.470Z,75.39
2023-02-22T04:56:18.074Z,76.74
2023-02-22T04:58:46.511Z,77.74
2023-02-22T05:01:15.376Z,77.82
2023-02-22T05:03:44.044Z,77.61
2023-02-22T05:06:11.025Z,77.59
2023-02-22T05:08:38.256Z,77.42
2023-02-22T05:11:05.792Z,77.35
2023-02-22T05:13:32.808Z,77.28
2023-02-22T05:16:01.590Z,77.05
2023-02-22T05:18:29.055Z,76.63
2023-02-22T05:20:56.300Z,76.96
2023-02-22T05:23:23.073Z,76.95
2023-02-22T05:25:49.881Z,76.77
2023-02-22T05:28:17.152Z,76.55
2023-02-22T05:30:44.428Z,76.39
2023-02-22T05:33:13.068Z,76.08
2023-02-22T05:35:40.090Z,76.34
2023-02-22T05:38:07.599Z,76.99
2023-02-22T05:40:34.786Z,76.85
2023-02-22T05:43:02.183Z,76.59
2023-02-22T05:45:30.046Z,76.81
2023-02-22T05:47:56.884Z,76.67
2023-02-22T05:50:26.276Z,76.46
2023-02-22T05:52:53.907Z,77.02
2023-02-22T05:55:23.524Z,77.80
2023-02-22T05:57:52.034Z,78.70
2023-02-22T06:00:22.329Z,79.29
2023-02-22T06:02:55.013Z,79.47
2023-02-22T06:05:22.043Z,79.92
2023-02-22T06:07:50.549Z,79.78
2023-02-22T06:10:18.061Z,80.04
2023-02-22T06:12:44.843Z,80.31
2023-02-22T06:15:11.797Z,80.42
2023-02-22T06:17:38.676Z,81.05
2023-02-22T06:20:06.615Z,81.04
2023-02-22T06:22:33.490Z,80.89
2023-02-22T06:25:03.405Z,81.01
2023-02-22T06:27:31.552Z,81.11
2023-02-22T06:30:00.586Z,81.19
2023-02-22T06:32:27.974Z,80.90
2023-02-22T06:34:54.916Z,80.92
2023-02-22T06:37:22.755Z,80.43
2023-02-22T06:39:49.618Z,79.79
2023-02-22T06:42:17.903Z,76.90
2023-02-22T06:44:44.787Z,74.38
2023-02-22T06:47:11.819Z,73.54
2023-02-22T06:49:38.625Z,72.58
2023-02-22T06:52:08.205Z,71.76
2023-02-22T06:54:35.612Z,70.07
2023-02-22T06:57:02.558Z,70.04
2023-02-22T06:59:30.855Z,72.60
2023-02-22T07:01:57.613Z,72.66
2023-02-22T07:04:25.087Z,72.85
2023-02-22T07:06:51.897Z,69.85
2023-02-22T07:09:18.882Z,69.45
2023-02-22T07:11:45.760Z,66.64
2023-02-22T07:14:12.634Z,65.54
2023-02-22T07:16:41.089Z,62.49
2023-02-22T07:19:07.935Z,59.62
2023-02-22T07:21:35.254Z,58.13
2023-02-22T07:24:03.992Z,58.48
2023-02-22T07:26:39.875Z,57.36
2023-02-22T07:29:12.148Z,56.50
2023-02-22T07:31:41.160Z,54.37
2023-02-22T07:34:08.099Z,53.65
2023-02-22T07:36:36.464Z,53.73
2023-02-22T07:39:03.484Z,53.98
2023-02-22T07:41:30.302Z,53.44
2023-02-22T07:43:57.372Z,54.79
2023-02-22T07:46:24.104Z,55.89
2023-02-22T07:48:52.251Z,55.33
2023-02-22T07:51:19.258Z,54.94
2023-02-22T07:53:46.281Z,57.52
2023-02-22T07:56:13.229Z,61.92
2023-02-22T07:58:40.529Z,61.68
2023-02-22T08:01:07.335Z,58.76
2023-02-22T08:03:35.165Z,57.04
2023-02-22T08:06:06.698Z,53.69
2023-02-22T08:08:33.808Z,52.40
2023-02-22T08:11:00.630Z,50.76
2023-02-22T08:13:27.747Z,49.75
2023-02-22T08:15:55.292Z,47.71
2023-02-22T08:18:25.116Z,47.07
2023-02-22T08:20:54.096Z,46.76
2023-02-22T08:23:25.474Z,45.75
2023-02-22T08:25:53.509Z,45.35
2023-02-22T08:28:24.167Z,44.48
2023-02-22T08:30:52.390Z,44.33
2023-02-22T08:33:20.153Z,43.17
2023-02-22T08:35:49.228Z,41.96
2023-02-22T08:38:20.895Z,43.44
2023-02-22T08:40:49.994Z,44.75
2023-02-22T08:43:17.538Z,45.50
2023-02-22T08:45:45.319Z,46.58
2023-02-22T08:48:12.632Z,47.41
2023-02-22T08:50:40.393Z,46.78
2023-02-22T08:53:09.132Z,47.43
2023-02-22T08:55:39.150Z,51.10
2023-02-22T08:58:08.741Z,54.27
2023-02-22T09:00:37.591Z,54.00
2023-02-22T09:03:07.810Z,53.52
2023-02-22T09:05:34.847Z,51.46
2023-02-22T09:08:02.084Z,50.25
2023-02-22T09:10:32.245Z,49.42
2023-02-22T09:13:01.379Z,47.82
2023-02-22T09:15:30.476Z,45.78
2023-02-22T09:17:57.724Z,44.30
2023-02-22T09:20:25.519Z,43.92
2023-02-22T09:22:53.720Z,43.36
2023-02-22T09:25:22.039Z,43.69
2023-02-22T09:27:51.259Z,43.20
2023-02-22T09:30:24.350Z,43.40
2023-02-22T09:32:55.789Z,42.49
2023-02-22T09:35:23.590Z,41.26
2023-02-22T09:37:51.318Z,40.98
2023-02-22T09:40:19.172Z,40.46
2023-02-22T09:43:07.279Z,40.42
2023-02-22T09:45:42.871Z,39.55
2023-02-22T09:48:22.100Z,38.89
2023-02-22T09:50:57.789Z,39.13
2023-02-22T09:53:31.986Z,39.15
2023-02-22T09:56:06.770Z,39.15
2023-02-22T09:58:41.824Z,39.44
2023-02-22T10:01:27.105Z,39.92
2023-02-22T10:04:06.044Z,40.22
2023-02-22T10:06:35.230Z,39.80
2023-02-22T10:09:04.024Z,40.13
2023-02-22T10:11:49.420Z,39.76
2023-02-22T10:14:48.701Z,41.96
2023-02-22T10:17:29.619Z,41.07
2023-02-22T10:20:21.740Z,41.60
2023-02-22T10:23:10.663Z,44.16
2023-02-22T10:25:42.105Z,44.04
2023-02-22T10:28:19.164Z,45.05
2023-02-22T10:30:51.282Z,46.49
2023-02-22T10:33:23.084Z,45.54
2023-02-22T10:35:54.003Z,46.08
2023-02-22T10:38:24.925Z,44.38
2023-02-22T10:41:00.777Z,43.48
2023-02-22T10:43:28.157Z,43.17
2023-02-22T10:46:02.552Z,41.40
2023-02-22T10:48:34.807Z,40.39
2023-02-22T10:51:08.101Z,38.82
2023-02-22T10:53:36.649Z,37.63
2023-02-22T10:56:14.641Z,36.68
2023-02-22T10:58:51.263Z,36.78
2023-02-22T11:01:22.069Z,37.28
2023-02-22T11:04:03.584Z,39.29
2023-02-22T11:06:34.591Z,37.50
2023-02-22T11:09:11.464Z,36.69
2023-02-22T11:11:41.467Z,36.89
2023-02-22T11:14:10.174Z,35.59
2023-02-22T11:16:42.445Z,34.70
2023-02-22T11:19:20.146Z,35.35
2023-02-22T11:21:51.726Z,35.43
2023-02-22T11:24:22.564Z,36.50
2023-02-22T11:26:56.610Z,35.33
2023-02-22T11:29:30.588Z,35.05
2023-02-22T11:32:04.242Z,36.35
2023-02-22T11:34:36.805Z,35.96
2023-02-22T11:37:29.356Z,36.38
2023-02-22T11:40:17.122Z,35.92
2023-02-22T11:42:44.053Z,35.84
2023-02-22T11:45:15.363Z,36.63
2023-02-22T11:47:54.207Z,37.51
2023-02-22T11:50:32.810Z,36.72
2023-02-22T11:53:21.885Z,37.06
2023-02-22T11:56:10.720Z,37.24
2023-02-22T11:58:48.280Z,35.57
2023-02-22T12:01:31.387Z,34.95
2023-02-22T12:04:50.878Z,35.15
2023-02-22T12:07:40.998Z,36.69
2023-02-22T12:10:23.764Z,38.09
2023-02-22T12:13:17.073Z,39.44
2023-02-22T12:15:54.652Z,39.66
2023-02-22T12:18:33.856Z,40.04
2023-02-22T12:21:07.292Z,40.44
2023-02-22T12:23:46.041Z,41.12
2023-02-22T12:26:25.184Z,40.54
2023-02-22T12:29:01.218Z,41.52
2023-02-22T12:31:32.859Z,42.91
2023-02-22T12:34:10.049Z,42.34
2023-02-22T12:36:45.336Z,44.01
2023-02-22T12:39:47.196Z,44.90
2023-02-22T12:42:29.424Z,44.72
2023-02-22T12:45:07.385Z,44.53
2023-02-22T12:47:47.554Z,44.67
2023-02-22T12:50:24.005Z,44.69
2023-02-22T12:52:59.545Z,45.12
2023-02-22T12:55:36.900Z,45.38
2023-02-22T12:58:17.655Z,45.32
2023-02-22T13:00:51.641Z,45.46
2023-02-22T13:03:34.572Z,44.96
2023-02-22T13:06:28.897Z,45.37
2023-02-22T13:09:26.069Z,45.90
2023-02-22T13:12:09.046Z,46.30
2023-02-22T13:14:51.466Z,46.94
2023-02-22T13:17:32.406Z,47.80
2023-02-22T13:20:05.651Z,49.36
2023-02-22T13:22:46.726Z,49.80
2023-02-22T13:25:19.218Z,49.42
2023-02-22T13:27:52.705Z,50.77
2023-02-22T13:30:35.103Z,50.10
2023-02-22T13:33:34.320Z,49.26
2023-02-22T13:36:17.423Z,48.32
2023-02-22T13:39:26.403Z,48.45
2023-02-22T13:42:14.655Z,49.48
2023-02-22T13:45:24.636Z,50.50
2023-02-22T13:48:35.205Z,50.40
2023-02-22T13:51:14.417Z,49.56
2023-02-22T13:53:52.769Z,49.24
2023-02-22T13:56:21.318Z,49.46
2023-02-22T13:58:52.189Z,49.06
2023-02-22T14:01:48.137Z,48.18
2023-02-22T14:04:45.614Z,48.21
2023-02-22T14:07:54.023Z,47.70
2023-02-22T14:10:45.887Z,47.14
2023-02-22T14:13:14.351Z,47.88
2023-02-22T14:16:20.687Z,48.79
2023-02-22T14:19:02.622Z,48.31
2023-02-22T14:21:31.199Z,48.42
2023-02-22T14:24:09.616Z,48.56
2023-02-22T14:26:39.503Z,47.95
2023-02-22T14:29:18.464Z,48.25
2023-02-22T14:32:05.143Z,48.57
2023-02-22T14:34:48.106Z,49.08
2023-02-22T14:37:21.020Z,49.18
2023-02-22T14:39:52.319Z,49.62
2023-02-22T14:42:31.401Z,49.63
2023-02-22T14:45:05.244Z,49.87
2023-02-22T14:47:43.582Z,49.57
2023-02-22T14:50:20.389Z,49.71
2023-02-22T14:53:01.433Z,49.58
2023-02-22T14:55:34.019Z,50.25
2023-02-22T14:58:09.727Z,50.27
2023-02-22T15:00:40.250Z,50.59
2023-02-22T15:03:24.911Z,50.08
2023-02-22T15:05:51.727Z,50.46
2023-02-22T15:08:19.893Z,50.86
2023-02-22T15:10:50.517Z,51.05
2023-02-22T15:13:23.159Z,50.94
2023-02-22T15:15:57.760Z,51.27
2023-02-22T15:18:33.247Z,51.26
2023-02-22T15:21:10.105Z,50.79
2023-02-22T15:23:46.819Z,51.42
2023-02-22T15:26:20.436Z,51.55
2023-02-22T15:28:48.273Z,51.64
2023-02-22T15:31:26.168Z,51.69
2023-02-22T15:33:54.044Z,51.55
2023-02-22T15:36:26.799Z,51.65
2023-02-22T15:38:55.423Z,51.82
2023-02-22T15:41:32.672Z,51.98
2023-02-22T15:44:21.269Z,51.74
2023-02-22T15:46:50.118Z,51.93
2023-02-22T15:49:23.088Z,52.67
2023-02-22T15:52:06.982Z,52.48
2023-02-22T15:54:44.478Z,52.05
2023-02-22T15:57:16.549Z,50.99
2023-02-22T15:59:51.222Z,49.29
2023-02-22T16:02:38.972Z,49.97
2023-02-22T16:05:10.276Z,50.72
2023-02-22T16:07:42.632Z,49.92
2023-02-22T16:10:31.196Z,49.79
2023-02-22T16:13:19.079Z,49.97
2023-02-22T16:16:02.674Z,49.82
2023-02-22T16:18:36.824Z,49.78
2023-02-22T16:21:10.223Z,50.63
2023-02-22T16:23:49.981Z,51.13
2023-02-22T16:26:28.097Z,51.25
2023-02-22T16:29:00.834Z,51.12
2023-02-22T16:31:30.512Z,51.96
2023-02-22T16:33:57.764Z,52.41
2023-02-22T16:36:39.020Z,52.01
2023-02-22T16:39:08.033Z,52.09
2023-02-22T16:41:36.284Z,52.34
2023-02-22T16:44:03.757Z,53.07
2023-02-22T16:46:30.606Z,53.47
2023-02-22T16:48:57.760Z,53.81
2023-02-22T16:51:28.709Z,54.40
2023-02-22T16:53:56.760Z,54.45
2023-02-22T16:56:31.027Z,55.17
2023-02-22T16:59:05.702Z,54.86
2023-02-22T17:04:26.338Z,55.63
2023-02-22T17:06:53.463Z,56.16
2023-02-22T17:09:20.448Z,56.49
2023-02-22T17:11:51.194Z,56.04
2023-02-22T17:14:23.002Z,56.49
2023-02-22T17:16:49.945Z,56.08
2023-02-22T17:19:21.012Z,56.65
2023-02-22T17:21:48.731Z,56.37
2023-02-22T17:24:19.889Z,56.52
2023-02-22T17:26:46.696Z,56.79
2023-02-22T17:29:13.706Z,56.83
2023-02-22T17:31:42.321Z,57.25
2023-02-22T17:34:09.850Z,57.39
2023-02-22T17:36:37.830Z,57.75
2023-02-22T17:39:05.765Z,57.88
2023-02-22T17:41:32.886Z,58.13
2023-02-22T17:43:59.868Z,57.99
2023-02-22T17:46:26.849Z,58.96
2023-02-22T17:48:55.404Z,58.63
2023-02-22T17:51:25.226Z,59.39
2023-02-22T17:53:52.134Z,60.49
2023-02-22T17:56:21.688Z,62.55
2023-02-22T17:58:53.444Z,62.80
2023-02-22T18:01:23.529Z,63.39
2023-02-22T18:03:51.074Z,62.99
2023-02-22T18:06:25.011Z,63.62
2023-02-22T18:08:55.794Z,63.87
2023-02-22T18:11:24.704Z,63.44
2023-02-22T18:13:52.105Z,64.22
2023-02-22T18:16:19.501Z,64.00
2023-02-22T18:18:46.457Z,65.39
2023-02-22T18:21:13.974Z,65.47
2023-02-22T18:23:43.166Z,65.49
2023-02-22T18:26:16.615Z,65.31
2023-02-22T18:28:45.379Z,66.34
2023-02-22T18:31:15.644Z,66.44
2023-02-22T18:33:43.296Z,67.06
2023-02-22T18:36:11.480Z,67.32
2023-02-22T18:38:53.024Z,67.01
2023-02-22T18:41:22.886Z,67.77
2023-02-22T18:43:49.674Z,67.45
2023-02-22T18:46:20.062Z,68.89
2023-02-22T18:48:48.914Z,69.05
2023-02-22T18:51:17.339Z,67.83
2023-02-22T18:53:47.166Z,68.36
2023-02-22T18:56:19.265Z,68.80
2023-02-22T18:58:47.581Z,68.52
2023-02-22T19:01:17.983Z,68.90
2023-02-22T19:03:45.466Z,68.67
2023-02-22T19:06:14.353Z,68.76
2023-02-22T19:08:43.489Z,68.46
2023-02-22T19:11:13.828Z,68.80
2023-02-22T19:13:42.043Z,68.38
2023-02-22T19:16:10.381Z,67.84
2023-02-22T19:18:37.662Z,67.91
2023-02-22T19:21:06.991Z,68.27
2023-02-22T19:23:35.372Z,68.29
2023-02-22T19:26:04.463Z,68.89
2023-02-22T19:28:31.456Z,68.01
2023-02-22T19:31:11.485Z,69.41
2023-02-22T19:33:39.014Z,68.54
2023-02-22T19:36:09.234Z,68.35
2023-02-22T19:38:36.387Z,69.96
2023-02-22T19:41:10.268Z,72.15
2023-02-22T19:43:37.483Z,73.29
2023-02-22T19:46:08.201Z,74.03
2023-02-22T19:48:44.225Z,73.01
2023-02-22T19:51:15.222Z,73.00
2023-02-22T19:53:43.785Z,72.57
2023-02-22T19:56:13.399Z,72.71
2023-02-22T19:58:44.893Z,71.72
2023-02-22T20:01:18.079Z,71.23
2023-02-22T20:03:45.353Z,71.22
2023-02-22T20:06:12.205Z,71.69
2023-02-22T20:08:42.558Z,72.15
2023-02-22T20:11:10.838Z,71.31
2023-02-22T20:13:38.888Z,71.43
2023-02-22T20:16:07.521Z,70.95
2023-02-22T20:18:36.187Z,71.51
2023-02-22T20:21:07.552Z,71.37
2023-02-22T20:23:34.523Z,72.00
2023-02-22T20:26:01.766Z,72.18
2023-02-22T20:28:28.859Z,72.60
2023-02-22T20:30:55.768Z,71.47
2023-02-22T20:33:23.190Z,71.35
2023-02-22T20:35:52.889Z,71.58
2023-02-22T20:38:19.824Z,71.47
2023-02-22T20:40:46.905Z,70.92
2023-02-22T20:47:17.289Z,71.22
2023-02-22T20:49:44.189Z,72.98
2023-02-22T20:52:13.026Z,74.38
2023-02-22T20:54:40.340Z,73.92
2023-02-22T20:57:07.251Z,74.44
2023-02-22T20:59:34.749Z,73.87
2023-02-22T21:02:02.567Z,73.93
2023-02-22T21:04:31.655Z,74.38
2023-02-22T21:06:59.159Z,74.35
2023-02-22T21:09:50.684Z,73.66
2023-02-22T21:12:17.833Z,72.66
2023-02-22T21:14:44.890Z,72.36
2023-02-22T21:17:11.772Z,71.52
2023-02-22T21:19:38.556Z,71.78
2023-02-22T21:22:05.384Z,72.83
2023-02-22T21:24:32.834Z,74.17
2023-02-22T21:27:01.630Z,75.38
2023-02-22T21:29:29.470Z,75.85
2023-02-22T21:31:56.709Z,75.27
2023-02-22T21:34:24.116Z,75.93
2023-02-22T21:36:51.479Z,76.23
2023-02-22T21:39:18.557Z,75.64
2023-02-22T21:41:47.909Z,75.52
2023-02-22T21:44:18.810Z,75.42
2023-02-22T21:46:45.894Z,75.12
2023-02-22T21:49:12.711Z,75.52
2023-02-22T21:51:39.790Z,76.23
2023-02-22T21:54:09.740Z,76.63
2023-02-22T21:56:39.665Z,76.34
2023-02-22T21:59:10.976Z,76.09
2023-02-22T22:01:43.782Z,76.74
2023-02-22T22:04:11.027Z,76.47
2023-02-22T22:06:37.873Z,76.73
2023-02-22T22:09:04.766Z,75.97
2023-02-22T22:11:31.537Z,75.41
2023-02-22T22:13:58.374Z,75.00
2023-02-22T22:16:27.142Z,76.05
2023-02-22T22:18:56.180Z,75.96
2023-02-22T22:21:24.466Z,76.16
2023-02-22T22:23:53.883Z,76.32
2023-02-22T22:26:23.229Z,76.12
2023-02-22T22:28:55.008Z,76.04
2023-02-22T22:31:24.511Z,75.91
2023-02-22T22:33:53.194Z,76.11
2023-02-22T22:36:23.822Z,77.63
2023-02-22T22:38:50.726Z,79.07
2023-02-22T22:41:20.256Z,78.85
2023-02-22T22:43:47.734Z,78.06
2023-02-22T22:46:17.398Z,76.90
2023-02-22T22:48:45.494Z,75.05
2023-02-22T22:51:15.513Z,74.62
2023-02-22T22:53:46.617Z,74.68
2023-02-22T22:56:17.755Z,73.65
2023-02-22T22:58:51.835Z,73.57
2023-02-22T23:01:22.360Z,73.57
2023-02-22T23:03:53.514Z,73.35
2023-02-22T23:06:22.646Z,73.27
2023-02-22T23:08:59.511Z,73.09
2023-02-22T23:11:28.703Z,72.72
2023-02-22T23:13:56.467Z,73.04
2023-02-22T23:16:24.442Z,73.69
2023-02-22T23:18:51.637Z,74.98
2023-02-22T23:21:19.802Z,75.78
2023-02-22T23:23:46.804Z,74.38
2023-02-22T23:26:15.034Z,74.61
2023-02-22T23:28:42.346Z,74.96
2023-02-22T23:31:12.893Z,74.54
2023-02-22T23:33:40.774Z,74.51
2023-02-22T23:36:08.885Z,75.75
2023-02-22T23:38:35.930Z,76.19
2023-02-22T23:41:04.230Z,75.80
2023-02-22T23:43:32.821Z,76.09
2023-02-22T23:46:05.993Z,75.41
2023-02-22T23:48:32.862Z,76.51
2023-02-22T23:51:05.214Z,77.47
2023-02-22T23:53:32.066Z,76.25
2023-02-22T23:56:01.026Z,75.75
2023-02-22T23:58:27.820Z,74.67
